This is the latest recevied weather packets stored in our database for station/object W5COG. If no packets are shown the sender has not sent any weather packets the latest 10 day(s).
| Time | Temp. | Humidity | Pressure | Rain* | Wind** | Luminosity | Snow |
|---|---|---|---|---|---|---|---|
| 1778162428 | 12.78° C | 64% | 1019.7 hPa | 0 mm | - | 440 W/m² | - |
| 1778162128 | 12.78° C | 65% | 1019.6 hPa | 0 mm | - | 423 W/m² | - |
| 1778161828 | 12.22° C | 67% | 1019.6 hPa | 0 mm | - | 407 W/m² | - |
| 1778161528 | 12.22° C | 68% | 1019.6 hPa | 0 mm | - | 391 W/m² | - |
| 1778161229 | 11.67° C | 71% | 1019.6 hPa | 0 mm | - | 373 W/m² | - |
| 1778160929 | 11.11° C | 72% | 1019.5 hPa | 0 mm | - | 357 W/m² | - |
| 1778160629 | 11.11° C | 76% | 1019.5 hPa | 0 mm | - | 340 W/m² | - |
| 1778160329 | 10.56° C | 80% | 1019.5 hPa | 0 mm | - | 323 W/m² | - |
| 1778160028 | 10° C | 82% | 1019.5 hPa | 0 mm | - | 305 W/m² | - |
| 1778159728 | 9.44° C | 84% | 1019.6 hPa | 0 mm | - | 290 W/m² | - |
| 1778159428 | 8.89° C | 87% | 1019.6 hPa | 0 mm | - | 274 W/m² | - |
| 1778159128 | 8.33° C | 88% | 1019.6 hPa | 0 mm | - | 258 W/m² | - |
| 1778158828 | 8.33° C | 91% | 1019.4 hPa | 0 mm | - | 243 W/m² | - |
| 1778158528 | 7.78° C | 92% | 1019.2 hPa | 0 mm | - | 227 W/m² | - |
| 1778158228 | 7.22° C | 93% | 1019.2 hPa | 0 mm | - | 212 W/m² | - |
| 1778157928 | 6.67° C | 94% | 1019.1 hPa | 0 mm | - | 197 W/m² | - |
| 1778157629 | 6.67° C | 94% | 1019 hPa | 0 mm | - | 182 W/m² | - |
| 1778157329 | 6.67° C | 94% | 1019.1 hPa | 0 mm | - | 166 W/m² | - |
| 1778155528 | 5.56° C | 94% | 1018.9 hPa | 0 mm | - | 23 W/m² | - |
| 1778155228 | 5.56° C | 94% | 1018.7 hPa | 0 mm | - | 20 W/m² | - |
| 1778154928 | 5.56° C | 94% | 1018.6 hPa | 0 mm | - | 16 W/m² | - |
| 1778154628 | 5.56° C | 94% | 1018.6 hPa | 0 mm | - | 11 W/m² | - |
| 1778154328 | 6.11° C | 94% | 1018.5 hPa | 0 mm | - | 11 W/m² | - |
| 1778154028 | 6.11° C | 94% | 1018.6 hPa | 0 mm | - | 8 W/m² | - |
| 1778153728 | 6.11° C | 94% | 1018.6 hPa | 0 mm | - | 6 W/m² | - |
* Rain latest hour (hover to see other rain measurements)
** Current wind speed in m/s (hover to see current wind gust speed)